Meteorología y climatología de Navarra
Datos de la estación - Meteo Navarra

Estación de Carcastillo (La Oliva) GN

Altitud 343 m.


Datos desde el 14/08/2019 hasta el 15/08/2019 en horario solar
Los datos son PROVISIONALES

Anterior Página 1 de 1 Siguiente Descargar: Formato para Excel 2000 o superior   Formato csv   Formato para OpenOffice Calc
Fecha Temperatura Humedad relativa Radiación global Insolación Precipitación Vel. viento 10 m Vel. viento 10 m Dir. viento 10 m
ºC % W/m² s l/m² m/s km/h º
14/08/2019 0:00 14.0 78 0.0 0 0.0 2.7 9.9 269
14/08/2019 0:10 14.2 77 0.0 0 0.0 3.2 11.5 265
14/08/2019 0:20 13.9 79 0.0 0 0.0 3.2 11.7 250
14/08/2019 0:30 13.7 79 0.0 0 0.0 2.5 8.9 261
14/08/2019 0:40 13.7 79 0.0 0 0.0 2.5 9.1 263
14/08/2019 0:50 13.8 79 0.0 0 0.0 2.2 7.9 258
14/08/2019 1:00 13.6 79 0.0 0 0.0 1.7 6.1 265
14/08/2019 1:10 13.4 80 0.0 0 0.0 2.5 9.1 256
14/08/2019 1:20 13.3 81 0.0 0 0.0 2.3 8.2 269
14/08/2019 1:30 13.2 81 0.0 0 0.0 1.3 4.5 268
14/08/2019 1:40 13.0 81 0.0 0 0.0 1.3 4.7 255
14/08/2019 1:50 12.8 82 0.0 0 0.0 1.1 4.1 260
14/08/2019 2:00 12.6 83 0.0 0 0.0 1.5 5.4 260
14/08/2019 2:10 12.5 83 0.0 0 0.0 2.1 7.5 255
14/08/2019 2:20 12.6 83 0.0 0 0.0 1.4 4.9 267
14/08/2019 2:30 12.3 86 0.0 0 0.0 0.0 0.1 35
14/08/2019 2:40 12.0 86 0.0 0 0.0 1.4 4.9 255
14/08/2019 2:50 12.1 85 0.0 0 0.0 0.8 2.9 248
14/08/2019 3:00 12.0 85 0.0 0 0.0 0.5 1.9 265
14/08/2019 3:10 12.0 86 0.0 0 0.0 0.6 2.1 268
14/08/2019 3:20 12.0 88 0.0 0 0.0 0.1 0.3 44
14/08/2019 3:30 11.7 90 0.0 0 0.0 0.8 2.7 61
14/08/2019 3:40 11.5 91 0.0 0 0.0 0.1 0.3 95
14/08/2019 3:50 11.4 90 0.0 0 0.0 0.2 0.6 139
14/08/2019 4:00 11.3 89 0.0 0 0.0 0.0 0.0 0
14/08/2019 4:10 11.3 89 0.0 0 0.0 0.0 0.0 0
14/08/2019 4:20 11.1 91 0.0 0 0.0 0.0 0.0 0
14/08/2019 4:30 10.9 92 0.0 0 0.0 0.0 0.0 0
14/08/2019 4:40 10.7 91 0.0 0 0.0 0.0 0.0 0
14/08/2019 4:50 10.7 92 0.0 0 0.0 0.0 0.0 0
14/08/2019 5:00 10.4 92 0.0 0 0.0 0.0 0.0 178
14/08/2019 5:10 10.4 94 0.0 0 0.0 0.6 2.1 77
14/08/2019 5:20 10.3 94 0.0 0 0.0 0.0 0.0 0
14/08/2019 5:30 10.4 95 13.4 50 0.0 0.0 0.0 0
14/08/2019 5:40 10.4 95 45.1 600 0.0 0.0 0.0 0
14/08/2019 5:50 10.5 94 71.1 600 0.0 0.1 0.2 251
14/08/2019 6:00 10.8 94 71.3 400 0.0 0.0 0.0 0
14/08/2019 6:10 11.0 92 101.2 600 0.0 0.0 0.0 0
14/08/2019 6:20 11.4 91 128.7 600 0.0 0.0 0.0 177
14/08/2019 6:30 11.9 89 158.3 600 0.0 0.1 0.2 76
14/08/2019 6:40 12.5 85 188.6 600 0.0 0.0 0.0 0
14/08/2019 6:50 13.1 83 220.1 600 0.0 0.2 0.6 1
14/08/2019 7:00 13.7 81 252.4 600 0.0 0.6 2.3 341
14/08/2019 7:10 14.0 78 286.3 600 0.0 0.8 3.0 299
14/08/2019 7:20 14.5 76 319.4 600 0.0 0.8 3.0 272
14/08/2019 7:30 15.1 74 352.4 600 0.0 0.8 2.8 283
14/08/2019 7:40 15.5 71 384.7 600 0.0 1.1 3.9 295
14/08/2019 7:50 16.1 70 416.7 600 0.0 0.6 2.2 287
14/08/2019 8:00 16.8 66 448.5 600 0.0 1.1 4.0 277
14/08/2019 8:10 17.3 62 481.7 600 0.0 1.7 6.2 272
14/08/2019 8:20 17.8 60 512.5 600 0.0 1.6 5.8 267
14/08/2019 8:30 18.1 60 542.3 600 0.0 1.0 3.4 278
14/08/2019 8:40 18.4 58 571.6 600 0.0 1.1 3.9 273
14/08/2019 8:50 18.9 55 601.0 600 0.0 0.8 2.8 267
14/08/2019 9:00 19.5 54 628.0 600 0.0 0.8 2.7 286
14/08/2019 9:10 19.8 49 658.5 600 0.0 0.9 3.2 275
14/08/2019 9:20 20.3 47 691.2 600 0.0 1.1 4.0 259
14/08/2019 9:30 20.8 45 706.4 600 0.0 0.5 1.9 269
14/08/2019 9:40 21.5 41 726.7 600 0.0 0.3 1.0 245
14/08/2019 9:50 22.2 39 740.8 600 0.0 1.1 3.8 259
14/08/2019 10:00 22.9 37 773.4 600 0.0 1.4 5.0 283
14/08/2019 10:10 23.3 36 791.8 600 0.0 1.0 3.7 265
14/08/2019 10:20 23.8 35 809.0 600 0.0 1.2 4.3 276
14/08/2019 10:30 24.3 35 827.0 600 0.0 1.1 3.9 243
14/08/2019 10:40 24.8 35 849.0 600 0.0 1.6 5.6 283
14/08/2019 10:50 25.3 32 916.0 600 0.0 1.6 5.9 278
14/08/2019 11:00 26.0 31 703.2 600 0.0 2.5 9.1 267
14/08/2019 11:10 26.4 31 654.9 600 0.0 3.4 12.2 270
14/08/2019 11:20 26.4 32 691.8 600 0.0 3.5 12.6 269
14/08/2019 11:30 26.6 32 766.3 582 0.0 3.3 12.0 277
14/08/2019 11:40 27.0 31 742.8 600 0.0 3.1 11.1 273
14/08/2019 11:50 27.1 30 786.5 600 0.0 3.6 13.0 275
14/08/2019 12:00 27.8 29 941.0 600 0.0 3.4 12.3 289
14/08/2019 12:10 28.2 29 930.0 600 0.0 3.7 13.2 286
14/08/2019 12:20 28.4 28 918.0 600 0.0 3.7 13.1 287
14/08/2019 12:30 28.6 28 915.0 600 0.0 3.2 11.4 287
14/08/2019 12:40 28.9 28 911.0 600 0.0 3.3 11.7 303
14/08/2019 12:50 29.2 28 905.0 600 0.0 3.5 12.7 311
14/08/2019 13:00 29.3 28 900.0 600 0.0 3.5 12.6 298
14/08/2019 13:10 30.0 28 893.0 600 0.0 3.3 11.9 312
14/08/2019 13:20 29.9 27 886.0 600 0.0 3.8 13.8 309
14/08/2019 13:30 30.1 27 876.0 600 0.0 3.4 12.3 302
14/08/2019 13:40 30.4 27 863.0 600 0.0 3.4 12.1 300
14/08/2019 13:50 30.3 26 884.0 600 0.0 2.5 9.0 333
14/08/2019 14:00 30.7 26 910.0 600 0.0 2.9 10.5 306
14/08/2019 14:10 31.1 26 826.0 600 0.0 3.1 11.2 300
14/08/2019 14:20 31.1 27 820.0 600 0.0 2.6 9.5 330
14/08/2019 14:30 31.1 27 809.0 600 0.0 2.9 10.5 351
14/08/2019 14:40 31.0 27 760.6 600 0.0 3.4 12.1 342
14/08/2019 14:50 30.9 29 732.3 600 0.0 3.1 11.0 355
14/08/2019 15:00 30.9 29 706.0 600 0.0 2.7 9.8 349
14/08/2019 15:10 31.3 28 681.9 600 0.0 3.3 12.0 333
14/08/2019 15:20 31.4 28 655.0 600 0.0 3.3 12.0 320
14/08/2019 15:30 31.0 29 629.2 600 0.0 3.7 13.4 355
14/08/2019 15:40 30.8 31 601.0 600 0.0 3.9 13.9 352
14/08/2019 15:50 30.7 31 572.0 600 0.0 3.2 11.7 360
14/08/2019 16:00 30.7 31 545.5 600 0.0 3.5 12.5 16
14/08/2019 16:10 30.5 31 516.3 600 0.0 4.0 14.2 12
14/08/2019 16:20 30.3 32 486.6 600 0.0 5.3 19.2 20
14/08/2019 16:30 29.9 33 456.6 600 0.0 5.8 20.8 21
14/08/2019 16:40 29.8 35 425.1 600 0.0 4.8 17.2 25
14/08/2019 16:50 29.5 36 390.9 600 0.0 6.5 23.4 32
14/08/2019 17:00 28.9 37 351.9 600 0.0 6.1 22.1 28
14/08/2019 17:10 28.5 37 321.7 600 0.0 6.5 23.2 30
14/08/2019 17:20 28.3 37 289.1 600 0.0 6.7 24.2 37
14/08/2019 17:30 27.9 37 264.4 600 0.0 7.0 25.0 31
14/08/2019 17:40 27.6 37 232.7 600 0.0 6.8 24.4 29
14/08/2019 17:50 27.3 38 196.2 600 0.0 7.5 26.9 34
14/08/2019 18:00 27.1 38 164.0 600 0.0 7.0 25.3 29
14/08/2019 18:10 26.7 39 133.6 600 0.0 7.4 26.5 37
14/08/2019 18:20 26.5 40 104.0 600 0.0 7.3 26.2 37
14/08/2019 18:30 26.2 41 76.9 600 0.0 7.1 25.5 40
14/08/2019 18:40 25.8 42 53.1 600 0.0 6.9 24.7 44
14/08/2019 18:50 25.4 44 19.9 112 0.0 6.2 22.3 47
14/08/2019 19:00 25.0 45 2.6 0 0.0 5.7 20.7 42
14/08/2019 19:10 24.7 47 0.0 0 0.0 5.3 18.9 50
14/08/2019 19:20 24.3 48 0.0 0 0.0 4.0 14.4 47
14/08/2019 19:30 24.0 49 0.0 0 0.0 2.8 9.9 47
14/08/2019 19:40 23.8 50 0.0 0 0.0 0.6 2.1 45
14/08/2019 19:50 23.4 52 0.0 0 0.0 1.3 4.5 23
14/08/2019 20:00 23.0 53 0.0 0 0.0 1.2 4.4 29
14/08/2019 20:10 22.8 54 0.0 0 0.0 1.5 5.3 37
14/08/2019 20:20 22.5 56 0.0 0 0.0 1.7 6.2 89
14/08/2019 20:30 22.2 58 0.0 0 0.0 3.3 11.8 73
14/08/2019 20:40 22.0 59 0.0 0 0.0 2.4 8.7 59
14/08/2019 20:50 21.8 61 0.0 0 0.0 2.2 7.9 41
14/08/2019 21:00 21.7 61 0.0 0 0.0 2.0 7.3 359
14/08/2019 21:10 22.0 62 0.0 0 0.0 3.2 11.4 28
14/08/2019 21:20 21.8 63 0.0 0 0.0 3.5 12.5 30
14/08/2019 21:30 21.8 63 0.0 0 0.0 2.4 8.6 28
14/08/2019 21:40 21.7 63 0.0 0 0.0 2.3 8.4 19
14/08/2019 21:50 21.7 63 0.0 0 0.0 2.7 9.9 9
14/08/2019 22:00 21.6 64 0.0 0 0.0 1.6 5.7 8
14/08/2019 22:10 21.4 64 0.0 0 0.0 1.3 4.8 45
14/08/2019 22:20 21.1 66 0.0 0 0.0 1.0 3.4 70
14/08/2019 22:30 20.7 68 0.0 0 0.0 1.2 4.2 350
14/08/2019 22:40 20.4 69 0.0 0 0.0 1.2 4.2 290
14/08/2019 22:50 20.1 70 0.0 0 0.0 0.6 2.1 289
14/08/2019 23:00 19.8 72 0.0 0 0.0 1.5 5.5 284
14/08/2019 23:10 19.6 73 0.0 0 0.0 1.6 5.7 266
14/08/2019 23:20 19.3 74 0.0 0 0.0 0.8 3.0 222
14/08/2019 23:30 18.9 75 0.0 0 0.0 1.0 3.7 231
14/08/2019 23:40 18.6 77 0.0 0 0.0 0.7 2.3 280
14/08/2019 23:50 18.4 79 0.0 0 0.0 1.4 4.9 270
Anterior Página 1 de 1 Siguiente

NOTA: Tipo de datos según el color:
   - Valores diarios o 10 minutos correctos
   - Valores diarios calculados a partir de un número de datos 10 minutos menor que 144 y mayor que 120, o de un número de datos semihorarios menor que 48 y mayor que 40 (caso de las estaciones de Riegos de Navarra y del MARM)
   - Valores diez minutos estimados


Contacto        Enlaces        Aviso legal